Accueil
METAR-TAF:

METAR-TAF

Aéroports :

Twin County Airport

Galax / Hillsville, Virginie, États-Unis

latitude: 36-46N, longitude: 080-49W, altitude: 834 m

Observation

Le bulletin a été fait il y a 11 minutes, à 12:15 UTC
Vent 7 kt de nord/nord-ouest
Température 9°C
Humidité 37%
Pression 1016 hPa
Visibilité: 16.1 km
Ciel clair

METAR: KHLX 041215Z AUTO 34007KT 10SM CLR 09/M05 A3001 RMK AO2 T00911052

Heure: 08:26 (12:26 UTC)


TAF: absent

Observations et prévisions météorologiques de plus de 4000 aéroports (messages METAR et TAF).

Les stations disponibles sont représentées par des disques jaunes et rouges sur la carte.

Passer la souris dessus pour voir le nom de la station.

Cliquer dessus pour voir les observations et prévisions météorologiques.

Pour changer de carte: cliquez sur les boutons verts avec une croix noire pour zoomer, sur le bouton vert avec un tiret pour effectuer un zoom arrière, ou sur les flèches vertes pour les cartes adjacentes.


METAR-TAF: